Terminal Aerodrome Forecast
Issued by NWS

Current Version | Previous Version | Graphics & Text | Print | Product List | Glossary Off
Versions: 1 2 3 4 5 6 7 8 9 10 11 12 13 14 15 16 17 18 19 20 21 22 23

000
FTUS41 KPBZ 240920 AAD
TAFHLG
TAF AMD
KHLG 240920Z 2409/2506 00000KT P6SM SCT080
      TEMPO 2409/2412 3SM BR
     FM241500 33008KT P6SM VCSH BKN035
     FM242300 34005KT P6SM SCT080=

USA.gov is the U.S. government's official web portal to all federal, state and local government web resources and services.